sensor_id;sensor_type;location;lat;lon;timestamp;P1;durP1;ratioP1;P2;durP2;ratioP2
10721;SDS011;5412;59.450;18.124;2024-02-21T00:02:20;3.87;;;3.00;;
10721;SDS011;5412;59.450;18.124;2024-02-21T00:04:46;3.80;;;3.20;;
10721;SDS011;5412;59.450;18.124;2024-02-21T00:07:11;4.60;;;3.30;;
10721;SDS011;5412;59.450;18.124;2024-02-21T00:09:37;5.00;;;3.97;;
10721;SDS011;5412;59.450;18.124;2024-02-21T00:12:03;5.40;;;4.10;;
10721;SDS011;5412;59.450;18.124;2024-02-21T00:14:30;3.67;;;3.27;;
10721;SDS011;5412;59.450;18.124;2024-02-21T00:16:56;4.73;;;4.00;;
10721;SDS011;5412;59.450;18.124;2024-02-21T00:19:21;4.13;;;3.73;;
10721;SDS011;5412;59.450;18.124;2024-02-21T00:21:47;4.40;;;3.97;;
10721;SDS011;5412;59.450;18.124;2024-02-21T00:24:13;5.10;;;4.03;;
10721;SDS011;5412;59.450;18.124;2024-02-21T00:26:38;5.70;;;4.10;;
10721;SDS011;5412;59.450;18.124;2024-02-21T00:29:04;5.67;;;4.43;;
10721;SDS011;5412;59.450;18.124;2024-02-21T00:31:30;4.97;;;4.17;;
10721;SDS011;5412;59.450;18.124;2024-02-21T00:33:56;5.00;;;4.00;;
10721;SDS011;5412;59.450;18.124;2024-02-21T00:36:23;5.40;;;4.50;;
10721;SDS011;5412;59.450;18.124;2024-02-21T00:38:48;5.00;;;4.40;;
10721;SDS011;5412;59.450;18.124;2024-02-21T00:41:14;5.57;;;3.97;;
10721;SDS011;5412;59.450;18.124;2024-02-21T00:43:41;6.50;;;3.57;;
10721;SDS011;5412;59.450;18.124;2024-02-21T00:46:06;4.67;;;3.53;;
10721;SDS011;5412;59.450;18.124;2024-02-21T00:48:33;4.43;;;3.70;;
10721;SDS011;5412;59.450;18.124;2024-02-21T00:50:59;5.20;;;3.83;;
10721;SDS011;5412;59.450;18.124;2024-02-21T00:53:24;4.77;;;3.67;;
10721;SDS011;5412;59.450;18.124;2024-02-21T00:55:50;4.13;;;3.43;;
10721;SDS011;5412;59.450;18.124;2024-02-21T00:58:16;3.97;;;3.30;;
10721;SDS011;5412;59.450;18.124;2024-02-21T01:00:41;4.27;;;3.67;;
10721;SDS011;5412;59.450;18.124;2024-02-21T01:03:07;4.40;;;3.47;;
10721;SDS011;5412;59.450;18.124;2024-02-21T01:05:33;4.07;;;3.50;;
10721;SDS011;5412;59.450;18.124;2024-02-21T01:07:58;4.30;;;3.90;;
10721;SDS011;5412;59.450;18.124;2024-02-21T01:10:24;5.57;;;4.30;;
10721;SDS011;5412;59.450;18.124;2024-02-21T01:12:50;5.10;;;4.33;;
10721;SDS011;5412;59.450;18.124;2024-02-21T01:15:16;4.33;;;3.73;;
10721;SDS011;5412;59.450;18.124;2024-02-21T01:17:41;4.30;;;3.90;;
10721;SDS011;5412;59.450;18.124;2024-02-21T01:20:07;4.43;;;3.97;;
10721;SDS011;5412;59.450;18.124;2024-02-21T01:22:33;4.07;;;3.63;;
10721;SDS011;5412;59.450;18.124;2024-02-21T01:24:59;3.50;;;3.20;;
10721;SDS011;5412;59.450;18.124;2024-02-21T01:27:24;3.57;;;3.27;;
10721;SDS011;5412;59.450;18.124;2024-02-21T01:29:50;4.23;;;3.07;;
10721;SDS011;5412;59.450;18.124;2024-02-21T01:32:16;4.33;;;3.63;;
10721;SDS011;5412;59.450;18.124;2024-02-21T01:34:41;4.73;;;4.00;;
10721;SDS011;5412;59.450;18.124;2024-02-21T01:37:08;4.63;;;3.63;;
10721;SDS011;5412;59.450;18.124;2024-02-21T01:39:34;4.07;;;3.40;;
10721;SDS011;5412;59.450;18.124;2024-02-21T01:42:00;3.73;;;3.37;;
10721;SDS011;5412;59.450;18.124;2024-02-21T01:44:26;6.33;;;3.70;;
10721;SDS011;5412;59.450;18.124;2024-02-21T01:46:52;4.57;;;3.87;;
10721;SDS011;5412;59.450;18.124;2024-02-21T01:49:19;4.90;;;3.70;;
10721;SDS011;5412;59.450;18.124;2024-02-21T01:51:46;4.63;;;3.03;;
10721;SDS011;5412;59.450;18.124;2024-02-21T01:54:13;4.60;;;3.83;;
10721;SDS011;5412;59.450;18.124;2024-02-21T01:56:41;5.13;;;3.83;;
10721;SDS011;5412;59.450;18.124;2024-02-21T01:59:07;7.23;;;4.50;;
10721;SDS011;5412;59.450;18.124;2024-02-21T02:01:33;8.80;;;3.97;;
10721;SDS011;5412;59.450;18.124;2024-02-21T02:03:59;5.13;;;4.20;;
10721;SDS011;5412;59.450;18.124;2024-02-21T02:06:25;5.83;;;3.67;;
10721;SDS011;5412;59.450;18.124;2024-02-21T02:08:50;10.03;;;3.87;;
10721;SDS011;5412;59.450;18.124;2024-02-21T02:11:16;13.20;;;3.77;;
10721;SDS011;5412;59.450;18.124;2024-02-21T02:13:42;5.17;;;3.70;;
10721;SDS011;5412;59.450;18.124;2024-02-21T02:16:08;32.53;;;4.80;;
10721;SDS011;5412;59.450;18.124;2024-02-21T02:18:34;7.33;;;3.77;;
10721;SDS011;5412;59.450;18.124;2024-02-21T02:20:59;13.63;;;3.80;;
10721;SDS011;5412;59.450;18.124;2024-02-21T02:25:51;24.77;;;3.63;;
10721;SDS011;5412;59.450;18.124;2024-02-21T02:28:19;52.10;;;4.97;;
10721;SDS011;5412;59.450;18.124;2024-02-21T02:30:45;23.63;;;4.37;;
10721;SDS011;5412;59.450;18.124;2024-02-21T02:33:12;13.47;;;3.33;;
10721;SDS011;5412;59.450;18.124;2024-02-21T02:35:38;10.50;;;3.87;;
10721;SDS011;5412;59.450;18.124;2024-02-21T02:38:03;14.30;;;3.40;;
10721;SDS011;5412;59.450;18.124;2024-02-21T02:40:30;14.97;;;3.77;;
10721;SDS011;5412;59.450;18.124;2024-02-21T02:42:56;16.43;;;3.90;;
10721;SDS011;5412;59.450;18.124;2024-02-21T02:45:22;13.60;;;3.70;;
10721;SDS011;5412;59.450;18.124;2024-02-21T02:47:55;48.50;;;5.10;;
10721;SDS011;5412;59.450;18.124;2024-02-21T02:50:22;15.90;;;3.90;;
10721;SDS011;5412;59.450;18.124;2024-02-21T02:52:51;11.17;;;4.43;;
10721;SDS011;5412;59.450;18.124;2024-02-21T02:55:18;16.23;;;4.03;;
10721;SDS011;5412;59.450;18.124;2024-02-21T02:57:43;12.53;;;4.03;;
10721;SDS011;5412;59.450;18.124;2024-02-21T03:00:10;51.23;;;4.70;;
10721;SDS011;5412;59.450;18.124;2024-02-21T03:02:37;18.30;;;4.10;;
10721;SDS011;5412;59.450;18.124;2024-02-21T03:05:09;12.33;;;4.20;;
10721;SDS011;5412;59.450;18.124;2024-02-21T03:07:40;27.03;;;4.33;;
10721;SDS011;5412;59.450;18.124;2024-02-21T03:10:07;17.83;;;4.10;;
10721;SDS011;5412;59.450;18.124;2024-02-21T03:12:33;4.70;;;3.43;;
10721;SDS011;5412;59.450;18.124;2024-02-21T03:14:58;11.80;;;3.80;;
10721;SDS011;5412;59.450;18.124;2024-02-21T03:17:24;10.07;;;3.83;;
10721;SDS011;5412;59.450;18.124;2024-02-21T03:19:52;18.07;;;4.27;;
10721;SDS011;5412;59.450;18.124;2024-02-21T03:22:17;28.57;;;5.77;;
10721;SDS011;5412;59.450;18.124;2024-02-21T03:24:44;12.47;;;4.50;;
10721;SDS011;5412;59.450;18.124;2024-02-21T03:27:09;17.13;;;5.57;;
10721;SDS011;5412;59.450;18.124;2024-02-21T03:29:35;12.03;;;4.90;;
10721;SDS011;5412;59.450;18.124;2024-02-21T03:32:01;7.80;;;5.10;;
10721;SDS011;5412;59.450;18.124;2024-02-21T03:34:26;8.60;;;5.03;;
10721;SDS011;5412;59.450;18.124;2024-02-21T03:36:52;6.67;;;4.57;;
10721;SDS011;5412;59.450;18.124;2024-02-21T03:39:18;6.73;;;4.67;;
10721;SDS011;5412;59.450;18.124;2024-02-21T03:41:44;7.23;;;4.90;;
10721;SDS011;5412;59.450;18.124;2024-02-21T03:44:09;6.83;;;4.53;;
10721;SDS011;5412;59.450;18.124;2024-02-21T03:46:35;6.27;;;4.47;;
10721;SDS011;5412;59.450;18.124;2024-02-21T03:49:01;6.67;;;4.77;;
10721;SDS011;5412;59.450;18.124;2024-02-21T03:51:26;5.87;;;4.87;;
10721;SDS011;5412;59.450;18.124;2024-02-21T03:53:52;5.73;;;4.47;;
10721;SDS011;5412;59.450;18.124;2024-02-21T03:56:18;7.27;;;4.30;;
10721;SDS011;5412;59.450;18.124;2024-02-21T03:58:43;5.27;;;3.97;;
10721;SDS011;5412;59.450;18.124;2024-02-21T04:01:09;5.10;;;3.90;;
10721;SDS011;5412;59.450;18.124;2024-02-21T04:03:34;4.93;;;3.40;;
10721;SDS011;5412;59.450;18.124;2024-02-21T04:06:00;5.83;;;3.93;;
10721;SDS011;5412;59.450;18.124;2024-02-21T04:08:26;6.07;;;3.30;;
10721;SDS011;5412;59.450;18.124;2024-02-21T04:10:52;4.30;;;3.30;;
10721;SDS011;5412;59.450;18.124;2024-02-21T04:13:18;2.97;;;2.50;;
10721;SDS011;5412;59.450;18.124;2024-02-21T04:15:43;4.67;;;3.13;;
10721;SDS011;5412;59.450;18.124;2024-02-21T04:18:09;4.33;;;3.30;;
10721;SDS011;5412;59.450;18.124;2024-02-21T04:20:35;4.90;;;2.90;;
10721;SDS011;5412;59.450;18.124;2024-02-21T04:23:01;3.27;;;2.37;;
10721;SDS011;5412;59.450;18.124;2024-02-21T04:25:26;6.07;;;2.73;;
10721;SDS011;5412;59.450;18.124;2024-02-21T04:27:52;3.43;;;2.37;;
10721;SDS011;5412;59.450;18.124;2024-02-21T04:30:18;2.40;;;2.17;;
10721;SDS011;5412;59.450;18.124;2024-02-21T04:32:43;4.20;;;2.90;;
10721;SDS011;5412;59.450;18.124;2024-02-21T04:35:09;2.57;;;2.23;;
10721;SDS011;5412;59.450;18.124;2024-02-21T04:37:35;2.77;;;2.33;;
10721;SDS011;5412;59.450;18.124;2024-02-21T04:40:01;3.47;;;2.43;;
10721;SDS011;5412;59.450;18.124;2024-02-21T04:42:26;2.00;;;1.80;;
10721;SDS011;5412;59.450;18.124;2024-02-21T04:44:52;3.63;;;2.10;;
10721;SDS011;5412;59.450;18.124;2024-02-21T04:47:18;2.13;;;1.90;;
10721;SDS011;5412;59.450;18.124;2024-02-21T04:49:48;2.90;;;1.80;;
10721;SDS011;5412;59.450;18.124;2024-02-21T04:52:14;2.20;;;1.90;;
10721;SDS011;5412;59.450;18.124;2024-02-21T04:54:40;3.10;;;2.17;;
10721;SDS011;5412;59.450;18.124;2024-02-21T04:57:05;4.47;;;2.03;;
10721;SDS011;5412;59.450;18.124;2024-02-21T04:59:31;3.47;;;2.00;;
10721;SDS011;5412;59.450;18.124;2024-02-21T05:01:57;3.13;;;1.70;;
10721;SDS011;5412;59.450;18.124;2024-02-21T05:04:23;3.27;;;1.57;;
10721;SDS011;5412;59.450;18.124;2024-02-21T05:06:49;2.90;;;1.67;;
10721;SDS011;5412;59.450;18.124;2024-02-21T05:09:15;3.93;;;1.67;;
10721;SDS011;5412;59.450;18.124;2024-02-21T05:11:41;2.83;;;1.83;;
10721;SDS011;5412;59.450;18.124;2024-02-21T05:14:06;3.97;;;1.80;;
10721;SDS011;5412;59.450;18.124;2024-02-21T05:16:32;2.20;;;1.80;;
10721;SDS011;5412;59.450;18.124;2024-02-21T05:18:58;3.10;;;1.60;;
10721;SDS011;5412;59.450;18.124;2024-02-21T05:21:24;2.57;;;1.63;;
10721;SDS011;5412;59.450;18.124;2024-02-21T05:23:50;2.27;;;1.93;;
10721;SDS011;5412;59.450;18.124;2024-02-21T05:26:23;2.57;;;1.70;;
10721;SDS011;5412;59.450;18.124;2024-02-21T05:28:49;5.57;;;2.13;;
10721;SDS011;5412;59.450;18.124;2024-02-21T05:31:15;3.53;;;1.90;;
10721;SDS011;5412;59.450;18.124;2024-02-21T05:33:43;3.13;;;2.00;;
10721;SDS011;5412;59.450;18.124;2024-02-21T05:36:09;4.07;;;1.80;;
10721;SDS011;5412;59.450;18.124;2024-02-21T05:38:35;3.20;;;2.37;;
10721;SDS011;5412;59.450;18.124;2024-02-21T05:41:01;3.80;;;2.07;;
10721;SDS011;5412;59.450;18.124;2024-02-21T05:43:26;2.57;;;2.10;;
10721;SDS011;5412;59.450;18.124;2024-02-21T05:45:52;6.77;;;2.40;;
10721;SDS011;5412;59.450;18.124;2024-02-21T05:48:18;4.30;;;2.20;;
10721;SDS011;5412;59.450;18.124;2024-02-21T05:50:44;2.83;;;2.13;;
10721;SDS011;5412;59.450;18.124;2024-02-21T05:53:09;3.87;;;2.23;;
10721;SDS011;5412;59.450;18.124;2024-02-21T05:55:36;5.47;;;2.80;;
10721;SDS011;5412;59.450;18.124;2024-02-21T05:58:02;6.67;;;2.50;;
10721;SDS011;5412;59.450;18.124;2024-02-21T06:00:28;4.50;;;2.17;;
10721;SDS011;5412;59.450;18.124;2024-02-21T06:02:53;3.90;;;2.37;;
10721;SDS011;5412;59.450;18.124;2024-02-21T06:05:19;3.80;;;2.37;;
10721;SDS011;5412;59.450;18.124;2024-02-21T06:07:45;3.50;;;2.73;;
10721;SDS011;5412;59.450;18.124;2024-02-21T06:10:10;6.23;;;2.80;;
10721;SDS011;5412;59.450;18.124;2024-02-21T06:12:36;5.20;;;2.53;;
10721;SDS011;5412;59.450;18.124;2024-02-21T06:15:02;5.10;;;2.63;;
10721;SDS011;5412;59.450;18.124;2024-02-21T06:17:28;5.30;;;2.30;;
10721;SDS011;5412;59.450;18.124;2024-02-21T06:19:53;4.80;;;2.43;;
10721;SDS011;5412;59.450;18.124;2024-02-21T06:22:20;7.07;;;2.70;;
10721;SDS011;5412;59.450;18.124;2024-02-21T06:24:46;4.37;;;2.27;;
10721;SDS011;5412;59.450;18.124;2024-02-21T06:27:11;5.63;;;2.80;;
10721;SDS011;5412;59.450;18.124;2024-02-21T06:29:39;4.20;;;2.50;;
10721;SDS011;5412;59.450;18.124;2024-02-21T06:32:05;3.33;;;2.43;;
10721;SDS011;5412;59.450;18.124;2024-02-21T06:34:31;4.47;;;2.47;;
10721;SDS011;5412;59.450;18.124;2024-02-21T06:36:57;5.43;;;2.57;;
10721;SDS011;5412;59.450;18.124;2024-02-21T06:39:23;4.70;;;2.70;;
10721;SDS011;5412;59.450;18.124;2024-02-21T06:41:48;4.20;;;2.63;;
10721;SDS011;5412;59.450;18.124;2024-02-21T06:44:16;3.83;;;2.80;;
10721;SDS011;5412;59.450;18.124;2024-02-21T06:46:42;3.63;;;2.37;;
10721;SDS011;5412;59.450;18.124;2024-02-21T06:49:08;6.93;;;2.70;;
10721;SDS011;5412;59.450;18.124;2024-02-21T06:51:34;3.27;;;2.40;;
10721;SDS011;5412;59.450;18.124;2024-02-21T06:54:00;3.27;;;2.17;;
10721;SDS011;5412;59.450;18.124;2024-02-21T06:56:26;2.53;;;2.23;;
10721;SDS011;5412;59.450;18.124;2024-02-21T06:58:53;4.43;;;2.40;;
10721;SDS011;5412;59.450;18.124;2024-02-21T07:01:20;5.17;;;3.20;;
10721;SDS011;5412;59.450;18.124;2024-02-21T07:03:45;4.13;;;2.70;;
10721;SDS011;5412;59.450;18.124;2024-02-21T07:06:11;6.77;;;2.83;;
10721;SDS011;5412;59.450;18.124;2024-02-21T07:08:37;5.57;;;3.00;;
10721;SDS011;5412;59.450;18.124;2024-02-21T07:11:04;4.87;;;3.57;;
10721;SDS011;5412;59.450;18.124;2024-02-21T07:13:30;6.07;;;3.77;;
10721;SDS011;5412;59.450;18.124;2024-02-21T07:15:55;4.57;;;3.23;;
10721;SDS011;5412;59.450;18.124;2024-02-21T07:18:21;5.47;;;3.47;;
10721;SDS011;5412;59.450;18.124;2024-02-21T07:20:47;4.57;;;3.13;;
10721;SDS011;5412;59.450;18.124;2024-02-21T07:23:12;3.93;;;3.37;;
10721;SDS011;5412;59.450;18.124;2024-02-21T07:25:38;6.00;;;3.80;;
10721;SDS011;5412;59.450;18.124;2024-02-21T07:28:04;6.27;;;3.20;;
10721;SDS011;5412;59.450;18.124;2024-02-21T07:30:31;5.23;;;3.30;;
10721;SDS011;5412;59.450;18.124;2024-02-21T07:32:57;6.63;;;3.77;;
10721;SDS011;5412;59.450;18.124;2024-02-21T07:35:22;5.87;;;3.50;;
10721;SDS011;5412;59.450;18.124;2024-02-21T07:37:49;6.40;;;3.43;;
10721;SDS011;5412;59.450;18.124;2024-02-21T07:40:15;8.50;;;3.93;;
10721;SDS011;5412;59.450;18.124;2024-02-21T07:42:42;5.47;;;3.27;;
10721;SDS011;5412;59.450;18.124;2024-02-21T07:45:08;7.20;;;3.83;;
10721;SDS011;5412;59.450;18.124;2024-02-21T07:47:35;6.27;;;3.90;;
10721;SDS011;5412;59.450;18.124;2024-02-21T07:50:01;5.63;;;3.50;;
10721;SDS011;5412;59.450;18.124;2024-02-21T07:52:30;7.67;;;3.70;;
10721;SDS011;5412;59.450;18.124;2024-02-21T07:54:56;5.43;;;3.63;;
10721;SDS011;5412;59.450;18.124;2024-02-21T07:57:22;6.53;;;3.97;;
10721;SDS011;5412;59.450;18.124;2024-02-21T07:59:48;5.40;;;3.97;;
10721;SDS011;5412;59.450;18.124;2024-02-21T08:02:14;7.50;;;3.50;;
10721;SDS011;5412;59.450;18.124;2024-02-21T08:04:40;10.50;;;3.67;;
10721;SDS011;5412;59.450;18.124;2024-02-21T08:07:06;6.73;;;4.23;;
10721;SDS011;5412;59.450;18.124;2024-02-21T08:09:31;6.60;;;3.83;;
10721;SDS011;5412;59.450;18.124;2024-02-21T08:11:57;5.30;;;3.73;;
10721;SDS011;5412;59.450;18.124;2024-02-21T08:14:23;4.73;;;3.70;;
10721;SDS011;5412;59.450;18.124;2024-02-21T08:16:50;5.37;;;3.83;;
10721;SDS011;5412;59.450;18.124;2024-02-21T08:19:18;6.47;;;4.20;;
10721;SDS011;5412;59.450;18.124;2024-02-21T08:21:44;6.10;;;3.97;;
10721;SDS011;5412;59.450;18.124;2024-02-21T08:24:12;9.27;;;4.30;;
10721;SDS011;5412;59.450;18.124;2024-02-21T08:26:41;5.57;;;3.83;;
10721;SDS011;5412;59.450;18.124;2024-02-21T08:29:07;5.47;;;4.03;;
10721;SDS011;5412;59.450;18.124;2024-02-21T08:31:33;5.63;;;4.10;;
10721;SDS011;5412;59.450;18.124;2024-02-21T08:33:59;6.93;;;3.90;;
10721;SDS011;5412;59.450;18.124;2024-02-21T08:36:29;5.83;;;4.03;;
10721;SDS011;5412;59.450;18.124;2024-02-21T08:38:59;6.90;;;3.90;;
10721;SDS011;5412;59.450;18.124;2024-02-21T08:41:25;6.23;;;4.20;;
10721;SDS011;5412;59.450;18.124;2024-02-21T08:43:51;10.23;;;4.43;;
10721;SDS011;5412;59.450;18.124;2024-02-21T08:46:19;6.53;;;3.87;;
10721;SDS011;5412;59.450;18.124;2024-02-21T08:48:45;8.63;;;4.00;;
10721;SDS011;5412;59.450;18.124;2024-02-21T08:51:12;6.77;;;4.30;;
10721;SDS011;5412;59.450;18.124;2024-02-21T08:53:38;5.43;;;4.00;;
10721;SDS011;5412;59.450;18.124;2024-02-21T08:56:03;10.30;;;4.57;;
10721;SDS011;5412;59.450;18.124;2024-02-21T08:58:30;6.57;;;3.90;;
10721;SDS011;5412;59.450;18.124;2024-02-21T09:00:56;9.37;;;4.70;;
10721;SDS011;5412;59.450;18.124;2024-02-21T09:03:22;8.20;;;4.23;;
10721;SDS011;5412;59.450;18.124;2024-02-21T09:05:48;13.10;;;4.60;;
10721;SDS011;5412;59.450;18.124;2024-02-21T09:08:13;9.67;;;4.60;;
10721;SDS011;5412;59.450;18.124;2024-02-21T09:10:40;8.43;;;4.27;;
10721;SDS011;5412;59.450;18.124;2024-02-21T09:13:05;9.13;;;4.50;;
10721;SDS011;5412;59.450;18.124;2024-02-21T09:15:33;9.07;;;4.40;;
10721;SDS011;5412;59.450;18.124;2024-02-21T09:17:59;8.87;;;4.33;;
10721;SDS011;5412;59.450;18.124;2024-02-21T09:20:25;12.10;;;4.70;;
10721;SDS011;5412;59.450;18.124;2024-02-21T09:22:50;6.87;;;4.30;;
10721;SDS011;5412;59.450;18.124;2024-02-21T09:25:17;9.83;;;4.87;;
10721;SDS011;5412;59.450;18.124;2024-02-21T09:27:43;8.10;;;4.10;;
10721;SDS011;5412;59.450;18.124;2024-02-21T09:30:10;9.47;;;4.20;;
10721;SDS011;5412;59.450;18.124;2024-02-21T09:32:36;15.77;;;4.73;;
10721;SDS011;5412;59.450;18.124;2024-02-21T09:35:02;8.33;;;3.97;;
10721;SDS011;5412;59.450;18.124;2024-02-21T09:37:30;11.87;;;5.50;;
10721;SDS011;5412;59.450;18.124;2024-02-21T09:39:56;8.83;;;4.57;;
10721;SDS011;5412;59.450;18.124;2024-02-21T09:42:22;10.60;;;4.77;;
10721;SDS011;5412;59.450;18.124;2024-02-21T09:45:02;8.60;;;4.03;;
10721;SDS011;5412;59.450;18.124;2024-02-21T09:50:34;10.87;;;4.90;;
10721;SDS011;5412;59.450;18.124;2024-02-21T09:53:03;9.43;;;4.20;;
10721;SDS011;5412;59.450;18.124;2024-02-21T09:55:31;9.83;;;4.37;;
10721;SDS011;5412;59.450;18.124;2024-02-21T09:57:59;6.20;;;3.90;;
10721;SDS011;5412;59.450;18.124;2024-02-21T10:00:26;7.33;;;4.03;;
10721;SDS011;5412;59.450;18.124;2024-02-21T10:02:53;10.63;;;4.27;;
10721;SDS011;5412;59.450;18.124;2024-02-21T10:05:19;11.30;;;4.43;;
10721;SDS011;5412;59.450;18.124;2024-02-21T10:07:45;9.57;;;3.70;;
10721;SDS011;5412;59.450;18.124;2024-02-21T10:10:10;10.20;;;4.03;;
10721;SDS011;5412;59.450;18.124;2024-02-21T10:12:36;6.73;;;4.07;;
10721;SDS011;5412;59.450;18.124;2024-02-21T10:15:12;8.67;;;3.70;;
10721;SDS011;5412;59.450;18.124;2024-02-21T10:17:38;7.97;;;4.07;;
10721;SDS011;5412;59.450;18.124;2024-02-21T10:20:07;8.70;;;4.00;;
10721;SDS011;5412;59.450;18.124;2024-02-21T10:22:34;11.50;;;4.47;;
10721;SDS011;5412;59.450;18.124;2024-02-21T10:25:08;8.53;;;4.53;;
10721;SDS011;5412;59.450;18.124;2024-02-21T10:27:34;7.30;;;3.53;;
10721;SDS011;5412;59.450;18.124;2024-02-21T10:30:00;9.30;;;3.90;;
10721;SDS011;5412;59.450;18.124;2024-02-21T10:32:26;14.77;;;4.10;;
10721;SDS011;5412;59.450;18.124;2024-02-21T10:35:00;5.57;;;3.47;;
10721;SDS011;5412;59.450;18.124;2024-02-21T10:37:33;7.00;;;3.60;;
10721;SDS011;5412;59.450;18.124;2024-02-21T10:40:00;10.03;;;3.67;;
10721;SDS011;5412;59.450;18.124;2024-02-21T10:42:28;3.97;;;2.90;;
10721;SDS011;5412;59.450;18.124;2024-02-21T10:45:00;6.63;;;3.37;;
10721;SDS011;5412;59.450;18.124;2024-02-21T10:47:29;6.60;;;3.43;;
10721;SDS011;5412;59.450;18.124;2024-02-21T10:49:57;5.10;;;3.17;;
10721;SDS011;5412;59.450;18.124;2024-02-21T10:55:03;10.80;;;5.90;;
10721;SDS011;5412;59.450;18.124;2024-02-21T10:57:34;8.50;;;3.07;;
10721;SDS011;5412;59.450;18.124;2024-02-21T11:00:02;10.27;;;3.73;;
10721;SDS011;5412;59.450;18.124;2024-02-21T11:02:28;9.33;;;4.40;;
10721;SDS011;5412;59.450;18.124;2024-02-21T11:04:56;3.27;;;2.50;;
10721;SDS011;5412;59.450;18.124;2024-02-21T11:07:23;4.40;;;2.60;;
10721;SDS011;5412;59.450;18.124;2024-02-21T11:09:52;3.20;;;2.90;;
10721;SDS011;5412;59.450;18.124;2024-02-21T11:12:22;3.53;;;2.50;;
10721;SDS011;5412;59.450;18.124;2024-02-21T11:14:48;7.87;;;2.50;;
10721;SDS011;5412;59.450;18.124;2024-02-21T11:17:20;3.67;;;2.30;;
10721;SDS011;5412;59.450;18.124;2024-02-21T11:19:52;4.13;;;2.83;;
10721;SDS011;5412;59.450;18.124;2024-02-21T11:22:18;3.93;;;2.20;;
10721;SDS011;5412;59.450;18.124;2024-02-21T11:24:47;5.13;;;2.50;;
10721;SDS011;5412;59.450;18.124;2024-02-21T11:27:19;4.63;;;2.70;;
10721;SDS011;5412;59.450;18.124;2024-02-21T11:29:55;4.97;;;2.77;;
10721;SDS011;5412;59.450;18.124;2024-02-21T11:32:22;3.33;;;2.40;;
10721;SDS011;5412;59.450;18.124;2024-02-21T11:37:26;3.27;;;2.50;;
10721;SDS011;5412;59.450;18.124;2024-02-21T11:39:56;6.33;;;2.60;;
10721;SDS011;5412;59.450;18.124;2024-02-21T11:42:22;2.63;;;2.43;;
10721;SDS011;5412;59.450;18.124;2024-02-21T11:44:49;5.83;;;3.27;;
10721;SDS011;5412;59.450;18.124;2024-02-21T11:47:15;4.50;;;2.53;;
10721;SDS011;5412;59.450;18.124;2024-02-21T11:49:45;2.10;;;1.53;;
10721;SDS011;5412;59.450;18.124;2024-02-21T11:52:14;4.27;;;2.27;;
10721;SDS011;5412;59.450;18.124;2024-02-21T11:54:44;2.00;;;1.80;;
10721;SDS011;5412;59.450;18.124;2024-02-21T11:57:10;2.35;;;1.50;;
10721;SDS011;5412;59.450;18.124;2024-02-21T11:59:36;2.83;;;1.98;;
10721;SDS011;5412;59.450;18.124;2024-02-21T12:02:02;3.17;;;2.15;;
10721;SDS011;5412;59.450;18.124;2024-02-21T12:04:28;4.03;;;2.58;;
10721;SDS011;5412;59.450;18.124;2024-02-21T12:06:56;3.08;;;2.35;;
10721;SDS011;5412;59.450;18.124;2024-02-21T12:09:23;2.40;;;2.10;;
10721;SDS011;5412;59.450;18.124;2024-02-21T12:14:26;5.35;;;2.30;;
10721;SDS011;5412;59.450;18.124;2024-02-21T12:16:53;2.78;;;2.55;;
10721;SDS011;5412;59.450;18.124;2024-02-21T12:19:19;3.40;;;2.35;;
10721;SDS011;5412;59.450;18.124;2024-02-21T12:21:45;7.00;;;2.42;;
10721;SDS011;5412;59.450;18.124;2024-02-21T12:24:22;3.22;;;2.33;;
10721;SDS011;5412;59.450;18.124;2024-02-21T12:26:49;4.07;;;2.90;;
10721;SDS011;5412;59.450;18.124;2024-02-21T12:29:15;3.37;;;2.30;;
10721;SDS011;5412;59.450;18.124;2024-02-21T12:31:41;4.05;;;2.30;;
10721;SDS011;5412;59.450;18.124;2024-02-21T12:34:07;3.50;;;2.75;;
10721;SDS011;5412;59.450;18.124;2024-02-21T12:36:35;9.00;;;3.10;;
10721;SDS011;5412;59.450;18.124;2024-02-21T12:39:07;3.60;;;2.35;;
10721;SDS011;5412;59.450;18.124;2024-02-21T12:41:33;3.10;;;2.80;;
10721;SDS011;5412;59.450;18.124;2024-02-21T12:44:00;4.50;;;3.45;;
10721;SDS011;5412;59.450;18.124;2024-02-21T12:46:26;5.82;;;4.07;;
10721;SDS011;5412;59.450;18.124;2024-02-21T12:48:51;5.70;;;3.17;;
10721;SDS011;5412;59.450;18.124;2024-02-21T12:51:17;4.57;;;2.90;;
10721;SDS011;5412;59.450;18.124;2024-02-21T12:53:46;5.82;;;3.58;;
10721;SDS011;5412;59.450;18.124;2024-02-21T12:56:14;4.97;;;2.90;;
10721;SDS011;5412;59.450;18.124;2024-02-21T12:58:40;5.35;;;3.30;;
10721;SDS011;5412;59.450;18.124;2024-02-21T13:01:06;3.83;;;2.57;;
10721;SDS011;5412;59.450;18.124;2024-02-21T13:03:32;4.67;;;3.40;;
10721;SDS011;5412;59.450;18.124;2024-02-21T13:05:57;5.63;;;3.70;;
10721;SDS011;5412;59.450;18.124;2024-02-21T13:08:24;6.73;;;3.67;;
10721;SDS011;5412;59.450;18.124;2024-02-21T13:10:50;7.83;;;3.60;;
10721;SDS011;5412;59.450;18.124;2024-02-21T13:13:15;4.90;;;3.60;;
10721;SDS011;5412;59.450;18.124;2024-02-21T13:15:41;7.33;;;3.67;;
10721;SDS011;5412;59.450;18.124;2024-02-21T13:18:10;8.40;;;3.93;;
10721;SDS011;5412;59.450;18.124;2024-02-21T13:20:36;7.03;;;3.60;;
10721;SDS011;5412;59.450;18.124;2024-02-21T13:23:02;6.00;;;3.97;;
10721;SDS011;5412;59.450;18.124;2024-02-21T13:25:28;6.70;;;4.20;;
10721;SDS011;5412;59.450;18.124;2024-02-21T13:27:54;6.60;;;3.70;;
10721;SDS011;5412;59.450;18.124;2024-02-21T13:30:21;12.03;;;4.33;;
10721;SDS011;5412;59.450;18.124;2024-02-21T13:32:47;7.60;;;4.07;;
10721;SDS011;5412;59.450;18.124;2024-02-21T13:35:13;6.20;;;4.17;;
10721;SDS011;5412;59.450;18.124;2024-02-21T13:37:40;10.47;;;4.37;;
10721;SDS011;5412;59.450;18.124;2024-02-21T13:40:06;8.87;;;4.33;;
10721;SDS011;5412;59.450;18.124;2024-02-21T13:42:39;9.50;;;4.22;;
10721;SDS011;5412;59.450;18.124;2024-02-21T13:45:05;10.38;;;5.25;;
10721;SDS011;5412;59.450;18.124;2024-02-21T13:47:32;9.88;;;4.88;;
10721;SDS011;5412;59.450;18.124;2024-02-21T13:49:58;8.57;;;5.00;;
10721;SDS011;5412;59.450;18.124;2024-02-21T13:52:24;12.43;;;4.80;;
10721;SDS011;5412;59.450;18.124;2024-02-21T13:54:53;10.33;;;4.97;;
10721;SDS011;5412;59.450;18.124;2024-02-21T13:57:18;11.67;;;4.87;;
10721;SDS011;5412;59.450;18.124;2024-02-21T13:59:44;9.70;;;4.83;;
10721;SDS011;5412;59.450;18.124;2024-02-21T14:02:10;10.33;;;4.30;;
10721;SDS011;5412;59.450;18.124;2024-02-21T14:04:35;17.90;;;5.33;;
10721;SDS011;5412;59.450;18.124;2024-02-21T14:07:01;8.38;;;4.72;;
10721;SDS011;5412;59.450;18.124;2024-02-21T14:09:27;11.63;;;5.10;;
10721;SDS011;5412;59.450;18.124;2024-02-21T14:11:54;14.53;;;6.03;;
10721;SDS011;5412;59.450;18.124;2024-02-21T14:14:20;17.33;;;5.53;;
10721;SDS011;5412;59.450;18.124;2024-02-21T14:16:46;8.27;;;4.80;;
10721;SDS011;5412;59.450;18.124;2024-02-21T14:19:13;12.18;;;4.95;;
10721;SDS011;5412;59.450;18.124;2024-02-21T14:21:39;8.97;;;5.30;;
10721;SDS011;5412;59.450;18.124;2024-02-21T14:24:05;16.88;;;5.22;;
10721;SDS011;5412;59.450;18.124;2024-02-21T14:26:32;23.80;;;5.20;;
10721;SDS011;5412;59.450;18.124;2024-02-21T14:28:58;15.50;;;5.22;;
10721;SDS011;5412;59.450;18.124;2024-02-21T14:31:24;14.35;;;5.68;;
10721;SDS011;5412;59.450;18.124;2024-02-21T14:33:50;8.53;;;4.97;;
10721;SDS011;5412;59.450;18.124;2024-02-21T14:36:17;16.90;;;5.27;;
10721;SDS011;5412;59.450;18.124;2024-02-21T14:38:43;12.73;;;5.73;;
10721;SDS011;5412;59.450;18.124;2024-02-21T14:41:12;12.00;;;5.73;;
10721;SDS011;5412;59.450;18.124;2024-02-21T14:43:38;8.63;;;5.00;;
10721;SDS011;5412;59.450;18.124;2024-02-21T14:46:03;7.27;;;4.80;;
10721;SDS011;5412;59.450;18.124;2024-02-21T14:48:30;15.47;;;4.93;;
10721;SDS011;5412;59.450;18.124;2024-02-21T14:50:57;11.00;;;5.30;;
10721;SDS011;5412;59.450;18.124;2024-02-21T14:53:23;8.90;;;4.93;;
10721;SDS011;5412;59.450;18.124;2024-02-21T14:55:49;43.27;;;5.90;;